BIKA weather

Kaldármelar Airport
Kaldármelar, Western Region, Iceland

Public forecast

Using degrees Celsius for public forecast. Weather courtesy of forecast.io.

METAR (pilot weather report)

Closest report is Reykjavik Airport, 39.8 nm (73.7 km) SSE. Retrieved 2019/04/19 00:00 UTC (5 minutes ago):

BIRK 190000Z 16017KT CAVOK 08/04 Q1007

TAF (pilot weather forecast)

Forecast is more than 12 hours old.

Closest forecast is Reykjavik Airport, 39.8 nm (73.7 km) SSE. Retrieved 2019/04/18 00:36 UTC (23 hours ago):

TAF BIRK 182234Z 1900/2000 15015KT 9999 BKN035 TX09/1912Z TN05/1924Z BECMG 1906/1909 14022G32KT BECMG 1909/1912 15018KT 5000 RADZ BR BKN010 OVC015 BECMG 1914/1917 9999 -SHRA BKN020 TEMPO 1920/2000 SHRA BKN015